createdAt,value
2022-08-26T00:00:39.965Z,25.15
2022-08-26T00:01:39.972Z,25.18
2022-08-26T00:02:40.022Z,25.15
2022-08-26T00:03:40.026Z,25.14
2022-08-26T00:04:39.977Z,25.18
2022-08-26T00:05:39.980Z,25.20
2022-08-26T00:06:42.649Z,25.14
2022-08-26T00:07:39.988Z,25.20
2022-08-26T00:08:40.002Z,25.21
2022-08-26T00:09:40.219Z,25.10
2022-08-26T00:10:40.004Z,25.15
2022-08-26T00:11:40.002Z,25.17
2022-08-26T00:12:40.001Z,25.08
2022-08-26T00:13:40.009Z,25.05
2022-08-26T00:14:40.009Z,25.13
2022-08-26T00:15:40.010Z,25.09
2022-08-26T00:16:40.784Z,25.10
2022-08-26T00:17:40.227Z,25.15
2022-08-26T00:18:40.842Z,25.05
2022-08-26T00:19:40.024Z,25.05
2022-08-26T00:20:40.032Z,25.06
2022-08-26T00:21:40.354Z,25.06
2022-08-26T00:22:40.036Z,25.13
2022-08-26T00:23:40.032Z,25.08
2022-08-26T00:24:40.041Z,25.02
2022-08-26T00:25:42.558Z,25.00
2022-08-26T00:26:40.045Z,25.06
2022-08-26T00:27:40.051Z,25.10
2022-08-26T00:28:40.275Z,25.06
2022-08-26T00:29:40.049Z,25.03
2022-08-26T00:30:40.070Z,25.03
2022-08-26T00:31:40.147Z,24.96
2022-08-26T00:32:40.060Z,24.99
2022-08-26T00:33:40.065Z,25.00
2022-08-26T00:34:40.076Z,25.00
2022-08-26T00:35:40.071Z,24.99
2022-08-26T00:36:40.601Z,24.96
2022-08-26T00:37:40.076Z,25.05
2022-08-26T00:38:40.076Z,24.96
2022-08-26T00:39:40.088Z,24.96
2022-08-26T00:40:40.086Z,24.93
2022-08-26T00:41:40.086Z,24.99
2022-08-26T00:42:40.092Z,24.88
2022-08-26T00:43:47.251Z,24.87
2022-08-26T00:44:40.092Z,24.83
2022-08-26T00:45:40.263Z,24.90
2022-08-26T00:46:40.098Z,24.88
2022-08-26T00:47:40.099Z,24.90
2022-08-26T00:48:40.102Z,24.88
2022-08-26T00:49:40.112Z,24.83
2022-08-26T00:50:40.111Z,24.85
2022-08-26T00:51:40.110Z,24.81
2022-08-26T00:52:40.113Z,24.84
2022-08-26T00:53:40.116Z,24.85
2022-08-26T00:54:40.122Z,24.81
2022-08-26T00:55:40.138Z,24.81
2022-08-26T00:56:40.130Z,24.80
2022-08-26T00:57:40.131Z,24.81
2022-08-26T00:58:40.132Z,24.81
2022-08-26T00:59:40.130Z,24.85
2022-08-26T01:00:40.164Z,24.84
2022-08-26T01:01:40.141Z,24.81
2022-08-26T01:02:40.208Z,24.78
2022-08-26T01:03:40.147Z,24.83
2022-08-26T01:04:40.150Z,24.80
2022-08-26T01:05:40.154Z,24.78
2022-08-26T01:06:40.152Z,24.83
2022-08-26T01:07:40.150Z,24.81
2022-08-26T01:08:40.164Z,24.78
2022-08-26T01:09:40.162Z,24.76
2022-08-26T01:10:40.169Z,24.81
2022-08-26T01:11:40.169Z,24.78
2022-08-26T01:12:40.418Z,24.83
2022-08-26T01:13:40.173Z,24.85
2022-08-26T01:14:40.176Z,24.81
2022-08-26T01:15:40.183Z,24.84
2022-08-26T01:16:40.221Z,24.81
2022-08-26T01:17:40.179Z,24.77
2022-08-26T01:18:40.190Z,24.84
2022-08-26T01:19:40.189Z,24.73
2022-08-26T01:20:40.197Z,24.84
2022-08-26T01:21:40.698Z,24.84
2022-08-26T01:22:40.200Z,24.78
2022-08-26T01:23:40.198Z,24.83
2022-08-26T01:24:40.201Z,24.80
2022-08-26T01:25:40.204Z,24.77
2022-08-26T01:26:40.210Z,24.65
2022-08-26T01:27:40.213Z,24.77
2022-08-26T01:28:40.215Z,24.65
2022-08-26T01:29:40.216Z,24.77
2022-08-26T01:30:40.224Z,24.77
2022-08-26T01:31:40.268Z,24.78
2022-08-26T01:32:40.220Z,24.73
2022-08-26T01:33:42.084Z,24.81
2022-08-26T01:34:40.227Z,24.80
2022-08-26T01:35:40.234Z,24.71
2022-08-26T01:36:40.232Z,24.80
2022-08-26T01:37:40.504Z,24.80
2022-08-26T01:38:40.240Z,24.65
2022-08-26T01:39:40.318Z,24.64
2022-08-26T01:40:40.245Z,24.71
2022-08-26T01:41:40.244Z,24.77
2022-08-26T01:42:40.251Z,24.81
2022-08-26T01:43:40.253Z,24.78
2022-08-26T01:44:40.253Z,24.65
2022-08-26T01:45:40.337Z,24.71
2022-08-26T01:46:40.260Z,24.65
2022-08-26T01:47:40.264Z,24.83
2022-08-26T01:48:40.264Z,24.76
2022-08-26T01:49:40.263Z,24.65
2022-08-26T01:50:40.274Z,24.76
2022-08-26T01:51:40.274Z,24.67
2022-08-26T01:52:40.279Z,24.62
2022-08-26T01:53:41.805Z,24.58
2022-08-26T01:54:40.286Z,24.65
2022-08-26T01:55:40.284Z,24.64
2022-08-26T01:56:40.286Z,24.60
2022-08-26T01:57:40.290Z,24.60
2022-08-26T01:58:40.293Z,24.64
2022-08-26T01:59:40.296Z,24.60
2022-08-26T02:00:40.355Z,24.60
2022-08-26T02:01:40.305Z,24.60
2022-08-26T02:02:40.306Z,24.60
2022-08-26T02:03:40.389Z,24.60
2022-08-26T02:04:40.380Z,24.62
2022-08-26T02:05:40.312Z,24.61
2022-08-26T02:06:40.314Z,24.65
2022-08-26T02:07:40.320Z,24.60
2022-08-26T02:08:40.318Z,24.60
2022-08-26T02:09:41.202Z,24.57
2022-08-26T02:10:40.321Z,24.64
2022-08-26T02:11:40.324Z,24.64
2022-08-26T02:12:40.331Z,24.62
2022-08-26T02:13:40.329Z,24.47
2022-08-26T02:14:43.766Z,24.50
2022-08-26T02:15:40.334Z,24.61
2022-08-26T02:16:42.458Z,24.60
2022-08-26T02:17:40.342Z,24.46
2022-08-26T02:18:40.345Z,24.53
2022-08-26T02:19:40.345Z,24.52
2022-08-26T02:20:40.347Z,24.55
2022-08-26T02:21:40.347Z,24.53
2022-08-26T02:22:40.356Z,24.57
2022-08-26T02:23:40.357Z,24.58
2022-08-26T02:24:40.366Z,24.57
2022-08-26T02:25:40.372Z,24.53
2022-08-26T02:26:40.363Z,24.57
2022-08-26T02:27:40.370Z,24.60
2022-08-26T02:28:40.371Z,24.53
2022-08-26T02:29:40.377Z,24.52
2022-08-26T02:30:40.374Z,24.55
2022-08-26T02:31:40.402Z,24.49
2022-08-26T02:32:40.377Z,24.50
2022-08-26T02:33:43.023Z,24.53
2022-08-26T02:34:40.385Z,24.53
2022-08-26T02:35:40.387Z,24.50
2022-08-26T02:36:40.391Z,24.50
2022-08-26T02:37:41.843Z,24.47
2022-08-26T02:38:40.397Z,24.47
2022-08-26T02:39:40.402Z,24.47
2022-08-26T02:40:40.406Z,24.45
2022-08-26T02:41:45.137Z,24.47
2022-08-26T02:42:40.406Z,24.47
2022-08-26T02:43:40.410Z,24.58
2022-08-26T02:44:40.416Z,24.50
2022-08-26T02:45:40.409Z,24.57
2022-08-26T02:46:40.487Z,24.43
2022-08-26T02:47:40.418Z,24.46
2022-08-26T02:48:40.419Z,24.46
2022-08-26T02:49:40.431Z,24.52
2022-08-26T02:50:40.752Z,24.47
2022-08-26T02:51:40.426Z,24.58
2022-08-26T02:52:40.426Z,24.55
2022-08-26T02:53:40.431Z,24.49
2022-08-26T02:54:40.436Z,24.42
2022-08-26T02:55:40.439Z,24.42
2022-08-26T02:56:40.440Z,24.49
2022-08-26T02:57:40.442Z,24.43
2022-08-26T02:58:40.448Z,24.45
2022-08-26T02:59:40.446Z,24.47
2022-08-26T03:00:53.520Z,24.46
2022-08-26T03:01:40.609Z,24.43
2022-08-26T03:02:40.454Z,24.49
2022-08-26T03:03:40.456Z,24.46
2022-08-26T03:04:40.460Z,24.43
2022-08-26T03:05:40.464Z,24.52
2022-08-26T03:06:40.669Z,24.46
2022-08-26T03:07:40.468Z,24.47
2022-08-26T03:08:40.471Z,24.39
2022-08-26T03:09:40.473Z,24.49
2022-08-26T03:10:40.477Z,24.39
2022-08-26T03:11:40.476Z,24.30
2022-08-26T03:12:40.480Z,24.40
2022-08-26T03:13:40.484Z,24.47
2022-08-26T03:14:40.483Z,24.32
2022-08-26T03:15:40.486Z,24.49
2022-08-26T03:16:40.489Z,24.52
2022-08-26T03:17:40.496Z,24.43
2022-08-26T03:18:40.492Z,24.45
2022-08-26T03:19:40.499Z,24.43
2022-08-26T03:20:40.496Z,24.46
2022-08-26T03:21:40.511Z,24.45
2022-08-26T03:22:40.500Z,24.46
2022-08-26T03:23:40.509Z,24.42
2022-08-26T03:24:40.507Z,24.45
2022-08-26T03:25:40.510Z,24.42
2022-08-26T03:26:40.508Z,24.46
2022-08-26T03:27:40.516Z,24.42
2022-08-26T03:28:40.519Z,24.43
2022-08-26T03:29:40.518Z,24.45
2022-08-26T03:30:45.233Z,24.40
2022-08-26T03:31:40.623Z,24.49
2022-08-26T03:32:41.497Z,24.45
2022-08-26T03:33:40.529Z,24.47
2022-08-26T03:34:40.532Z,24.53
2022-08-26T03:35:40.538Z,24.50
2022-08-26T03:36:41.692Z,24.42
2022-08-26T03:37:40.543Z,24.32
2022-08-26T03:38:40.544Z,24.31
2022-08-26T03:39:40.548Z,24.30
2022-08-26T03:40:40.545Z,24.40
2022-08-26T03:41:40.560Z,24.43
2022-08-26T03:42:40.555Z,24.35
2022-08-26T03:43:40.563Z,24.40
2022-08-26T03:44:42.124Z,24.34
2022-08-26T03:45:40.560Z,24.31
2022-08-26T03:46:40.636Z,24.37
2022-08-26T03:47:40.567Z,24.32
2022-08-26T03:48:40.571Z,24.40
2022-08-26T03:49:40.651Z,24.37
2022-08-26T03:50:40.572Z,24.39
2022-08-26T03:51:40.577Z,24.40
2022-08-26T03:52:43.711Z,24.42
2022-08-26T03:53:40.582Z,24.46
2022-08-26T03:54:40.582Z,24.32
2022-08-26T03:55:40.586Z,24.37
2022-08-26T03:56:40.591Z,24.40
2022-08-26T03:57:40.586Z,24.40
2022-08-26T03:58:42.810Z,24.31
2022-08-26T03:59:41.304Z,24.31
2022-08-26T04:00:40.595Z,24.32
2022-08-26T04:01:40.709Z,24.35
2022-08-26T04:02:40.632Z,24.32
2022-08-26T04:03:40.604Z,24.40
2022-08-26T04:04:40.604Z,24.43
2022-08-26T04:05:40.613Z,24.34
2022-08-26T04:06:40.609Z,24.35
2022-08-26T04:07:40.612Z,24.37
2022-08-26T04:08:40.637Z,24.34
2022-08-26T04:09:40.616Z,24.37
2022-08-26T04:10:40.619Z,24.37
2022-08-26T04:11:40.620Z,24.30
2022-08-26T04:12:40.624Z,24.43
2022-08-26T04:13:40.628Z,24.28
2022-08-26T04:14:40.625Z,24.30
2022-08-26T04:15:40.631Z,24.39
2022-08-26T04:16:40.635Z,24.47
2022-08-26T04:17:40.640Z,24.30
2022-08-26T04:18:46.684Z,24.35
2022-08-26T04:19:40.640Z,24.40
2022-08-26T04:20:40.642Z,24.35
2022-08-26T04:21:40.643Z,24.34
2022-08-26T04:22:40.675Z,24.31
2022-08-26T04:23:47.518Z,24.31
2022-08-26T04:24:40.649Z,24.47
2022-08-26T04:25:40.656Z,24.31
2022-08-26T04:26:42.713Z,24.40
2022-08-26T04:27:40.807Z,24.35
2022-08-26T04:28:40.660Z,24.46
2022-08-26T04:29:40.665Z,24.35
2022-08-26T04:30:40.669Z,24.40
2022-08-26T04:31:40.714Z,24.37
2022-08-26T04:32:40.676Z,24.52
2022-08-26T04:33:41.653Z,24.47
2022-08-26T04:34:40.673Z,24.49
2022-08-26T04:35:40.678Z,24.45
2022-08-26T04:36:40.678Z,24.47
2022-08-26T04:37:43.151Z,24.50
2022-08-26T04:38:40.689Z,24.42
2022-08-26T04:39:40.689Z,24.45
2022-08-26T04:40:40.693Z,24.43
2022-08-26T04:41:40.693Z,24.47
2022-08-26T04:42:40.695Z,24.47
2022-08-26T04:43:40.703Z,24.53
2022-08-26T04:44:40.696Z,24.50
2022-08-26T04:45:40.701Z,24.50
2022-08-26T04:46:43.985Z,24.55
2022-08-26T04:47:40.706Z,24.52
2022-08-26T04:48:40.704Z,24.55
2022-08-26T04:49:40.710Z,24.53
2022-08-26T04:50:40.712Z,24.57
2022-08-26T04:51:40.716Z,24.53
2022-08-26T04:52:40.721Z,24.57
2022-08-26T04:53:40.726Z,24.64
2022-08-26T04:54:41.994Z,24.64
2022-08-26T04:55:44.974Z,24.60
2022-08-26T04:56:40.724Z,24.58
2022-08-26T04:57:40.735Z,24.58
2022-08-26T04:58:40.733Z,24.64
2022-08-26T04:59:40.744Z,24.69
2022-08-26T05:00:40.736Z,24.71
2022-08-26T05:01:40.769Z,24.69
2022-08-26T05:02:40.742Z,24.67
2022-08-26T05:03:40.877Z,24.67
2022-08-26T05:04:40.743Z,24.64
2022-08-26T05:05:40.747Z,24.64
2022-08-26T05:06:40.753Z,24.69
2022-08-26T05:07:40.755Z,24.73
2022-08-26T05:08:40.763Z,24.67
2022-08-26T05:09:40.761Z,24.67
2022-08-26T05:10:40.755Z,24.65
2022-08-26T05:11:40.764Z,24.68
2022-08-26T05:12:40.764Z,24.65
2022-08-26T05:13:40.770Z,24.69
2022-08-26T05:14:40.780Z,24.71
2022-08-26T05:15:40.817Z,24.62
2022-08-26T05:16:40.774Z,24.80
2022-08-26T05:17:40.780Z,24.65
2022-08-26T05:18:40.780Z,24.83
2022-08-26T05:19:43.008Z,24.78
2022-08-26T05:20:40.799Z,24.78
2022-08-26T05:21:40.795Z,24.77
2022-08-26T05:22:40.793Z,24.85
2022-08-26T05:23:40.794Z,24.81
2022-08-26T05:24:40.795Z,24.88
2022-08-26T05:25:40.802Z,24.93
2022-08-26T05:26:40.799Z,24.96
2022-08-26T05:27:40.813Z,24.91
2022-08-26T05:28:40.801Z,24.96
2022-08-26T05:29:40.811Z,24.98
2022-08-26T05:30:40.857Z,25.08
2022-08-26T05:31:40.815Z,25.03
2022-08-26T05:32:40.816Z,25.09
2022-08-26T05:33:41.319Z,25.13
2022-08-26T05:34:40.819Z,25.10
2022-08-26T05:35:40.821Z,25.20
2022-08-26T05:36:40.823Z,25.20
2022-08-26T05:37:40.827Z,25.18
2022-08-26T05:38:40.831Z,25.21
2022-08-26T05:39:41.308Z,25.25
2022-08-26T05:40:40.878Z,25.28
2022-08-26T05:41:40.840Z,25.25
2022-08-26T05:42:40.840Z,25.28
2022-08-26T05:43:40.844Z,25.40
2022-08-26T05:44:53.876Z,25.40
2022-08-26T05:45:45.955Z,25.39
2022-08-26T05:46:40.968Z,25.40
2022-08-26T05:47:40.854Z,25.42
2022-08-26T05:48:40.851Z,25.50
2022-08-26T05:49:45.159Z,25.50
2022-08-26T05:50:40.861Z,25.54
2022-08-26T05:51:40.861Z,25.61
2022-08-26T05:52:40.867Z,25.65
2022-08-26T05:53:40.869Z,25.64
2022-08-26T05:54:40.871Z,25.65
2022-08-26T05:55:40.875Z,25.72
2022-08-26T05:56:40.874Z,25.73
2022-08-26T05:57:42.911Z,25.79
2022-08-26T05:58:40.881Z,25.83
2022-08-26T05:59:40.888Z,25.90
2022-08-26T06:00:41.625Z,25.95
2022-08-26T06:01:40.995Z,25.92
2022-08-26T06:02:40.945Z,25.98
2022-08-26T06:03:40.898Z,25.92
2022-08-26T06:04:40.897Z,25.94
2022-08-26T06:05:40.898Z,26.10
2022-08-26T06:06:40.898Z,26.13
2022-08-26T06:07:40.909Z,26.10
2022-08-26T06:08:40.907Z,26.20
2022-08-26T06:09:40.912Z,26.30
2022-08-26T06:10:40.914Z,26.32
2022-08-26T06:11:40.915Z,26.37
2022-08-26T06:12:40.922Z,26.39
2022-08-26T06:13:40.923Z,26.43
2022-08-26T06:14:40.925Z,26.43
2022-08-26T06:15:42.053Z,26.52
2022-08-26T06:16:41.206Z,26.50
2022-08-26T06:17:40.934Z,26.54
2022-08-26T06:18:40.938Z,26.60
2022-08-26T06:19:41.361Z,26.60
2022-08-26T06:20:40.944Z,26.63
2022-08-26T06:21:40.947Z,26.63
2022-08-26T06:22:40.948Z,26.65
2022-08-26T06:23:40.953Z,26.80
2022-08-26T06:24:40.953Z,26.77
2022-08-26T06:25:40.959Z,26.91
2022-08-26T06:26:42.671Z,26.91
2022-08-26T06:27:40.965Z,27.00
2022-08-26T06:28:40.969Z,27.02
2022-08-26T06:29:40.971Z,27.06
2022-08-26T06:30:40.987Z,27.17
2022-08-26T06:31:40.977Z,27.21
2022-08-26T06:32:40.981Z,27.28
2022-08-26T06:33:40.980Z,27.27
2022-08-26T06:34:40.986Z,27.34
2022-08-26T06:35:40.991Z,27.36
2022-08-26T06:36:40.996Z,27.39
2022-08-26T06:37:41.181Z,27.50
2022-08-26T06:38:40.996Z,27.54
2022-08-26T06:39:41.179Z,27.62
2022-08-26T06:40:41.005Z,27.62
2022-08-26T06:41:43.376Z,27.66
2022-08-26T06:42:41.013Z,27.72
2022-08-26T06:43:41.015Z,27.82
2022-08-26T06:44:41.185Z,28.00
2022-08-26T06:45:41.026Z,28.09
2022-08-26T06:46:41.070Z,28.29
2022-08-26T06:47:41.033Z,28.56
2022-08-26T06:48:41.033Z,28.89
2022-08-26T06:49:41.040Z,29.28
2022-08-26T06:50:41.036Z,29.73
2022-08-26T06:51:41.049Z,29.97
2022-08-26T06:52:41.049Z,30.31
2022-08-26T06:53:41.212Z,30.72
2022-08-26T06:54:41.053Z,30.88
2022-08-26T06:55:41.057Z,30.89
2022-08-26T06:56:41.069Z,30.98
2022-08-26T06:57:41.278Z,31.06
2022-08-26T06:58:41.076Z,31.23
2022-08-26T06:59:41.080Z,31.17
2022-08-26T07:00:47.141Z,31.13
2022-08-26T07:01:41.123Z,31.10
2022-08-26T07:02:41.153Z,30.94
2022-08-26T07:03:41.094Z,30.95
2022-08-26T07:04:41.093Z,30.86
2022-08-26T07:05:41.100Z,30.76
2022-08-26T07:06:41.103Z,30.69
2022-08-26T07:07:41.104Z,30.72
2022-08-26T07:08:41.111Z,30.64
2022-08-26T07:09:41.118Z,30.61
2022-08-26T07:10:41.120Z,30.62
2022-08-26T07:11:41.122Z,30.61
2022-08-26T07:12:41.122Z,30.67
2022-08-26T07:13:41.134Z,30.61
2022-08-26T07:14:41.136Z,30.76
2022-08-26T07:15:41.193Z,30.72
2022-08-26T07:16:41.179Z,30.83
2022-08-26T07:17:41.150Z,31.01
2022-08-26T07:18:41.165Z,30.97
2022-08-26T07:19:41.168Z,31.13
2022-08-26T07:20:41.164Z,31.31
2022-08-26T07:21:41.175Z,31.35
2022-08-26T07:22:41.172Z,31.48
2022-08-26T07:23:41.185Z,31.70
2022-08-26T07:24:41.189Z,31.92
2022-08-26T07:25:41.192Z,32.06
2022-08-26T07:26:42.980Z,32.32
2022-08-26T07:27:41.205Z,32.65
2022-08-26T07:28:41.209Z,32.87
2022-08-26T07:29:41.212Z,33.12
2022-08-26T07:30:41.269Z,33.49
2022-08-26T07:31:42.691Z,33.82
2022-08-26T07:32:41.237Z,34.03
2022-08-26T07:33:41.237Z,34.13
2022-08-26T07:34:41.925Z,34.43
2022-08-26T07:35:41.251Z,34.77
2022-08-26T07:36:41.257Z,34.87
2022-08-26T07:37:41.268Z,35.10
2022-08-26T07:38:41.270Z,35.45
2022-08-26T07:39:41.279Z,35.81
2022-08-26T07:40:41.285Z,36.07
2022-08-26T07:41:41.291Z,36.34
2022-08-26T07:42:41.302Z,36.50
2022-08-26T07:43:41.306Z,36.85
2022-08-26T07:44:41.316Z,37.27
2022-08-26T07:45:41.323Z,37.75
2022-08-26T07:46:41.335Z,38.00
2022-08-26T07:47:41.338Z,38.16
2022-08-26T07:48:41.345Z,38.37
2022-08-26T07:49:41.434Z,38.63
2022-08-26T07:50:50.288Z,38.99
2022-08-26T07:51:41.371Z,39.26
2022-08-26T07:52:41.382Z,39.51
2022-08-26T07:53:41.388Z,39.82
2022-08-26T07:54:41.401Z,40.04
2022-08-26T07:55:41.407Z,40.32
2022-08-26T07:56:41.417Z,40.53
2022-08-26T07:57:41.423Z,40.74
2022-08-26T07:58:41.437Z,41.04
2022-08-26T07:59:41.446Z,41.17
2022-08-26T08:00:41.456Z,41.44
2022-08-26T08:01:44.886Z,41.47
2022-08-26T08:02:41.474Z,41.36
2022-08-26T08:03:41.483Z,41.44
2022-08-26T08:04:41.543Z,41.52
2022-08-26T08:05:41.599Z,41.67
2022-08-26T08:06:41.514Z,41.63
2022-08-26T08:07:44.758Z,41.20
2022-08-26T08:08:41.533Z,40.94
2022-08-26T08:09:41.542Z,40.61
2022-08-26T08:10:41.567Z,40.61
2022-08-26T08:11:41.568Z,40.70
2022-08-26T08:12:41.587Z,40.42
2022-08-26T08:13:41.590Z,40.00
2022-08-26T08:14:41.601Z,40.01
2022-08-26T08:15:41.603Z,40.06
2022-08-26T08:16:46.134Z,40.08
2022-08-26T08:17:41.628Z,40.08
2022-08-26T08:18:41.645Z,39.98
2022-08-26T08:19:41.649Z,39.89
2022-08-26T08:20:44.688Z,39.69
2022-08-26T08:21:41.673Z,39.54
2022-08-26T08:22:41.684Z,39.48
2022-08-26T08:23:41.691Z,39.29
2022-08-26T08:24:41.707Z,38.95
2022-08-26T08:25:41.713Z,38.61
2022-08-26T08:26:41.736Z,38.47
2022-08-26T08:27:41.740Z,38.44
2022-08-26T08:28:41.744Z,38.50
2022-08-26T08:29:41.759Z,38.28
2022-08-26T08:30:41.877Z,38.22
2022-08-26T08:31:58.374Z,38.18
2022-08-26T08:32:41.785Z,38.30
2022-08-26T08:33:41.800Z,38.37
2022-08-26T08:35:41.821Z,38.44
2022-08-26T08:36:41.840Z,38.52
2022-08-26T08:37:41.850Z,38.50
2022-08-26T08:38:41.859Z,38.32
2022-08-26T08:39:41.870Z,38.38
2022-08-26T08:40:41.882Z,38.50
2022-08-26T08:41:41.890Z,38.57
2022-08-26T08:42:41.936Z,38.63
2022-08-26T08:43:41.913Z,38.37
2022-08-26T08:44:41.925Z,38.31
2022-08-26T08:45:42.018Z,38.37
2022-08-26T08:46:41.952Z,38.46
2022-08-26T08:47:41.965Z,38.34
2022-08-26T08:48:41.973Z,38.18
2022-08-26T08:49:41.984Z,37.91
2022-08-26T08:50:41.994Z,37.82
2022-08-26T08:51:42.018Z,37.64
2022-08-26T08:52:42.022Z,37.50
2022-08-26T08:53:42.031Z,37.32
2022-08-26T08:54:42.044Z,37.34
2022-08-26T08:55:42.057Z,37.67
2022-08-26T08:56:42.070Z,37.85
2022-08-26T08:57:42.079Z,37.88
2022-08-26T08:58:42.093Z,38.07
2022-08-26T08:59:42.107Z,38.11
2022-08-26T09:00:42.117Z,38.25
2022-08-26T09:01:42.201Z,38.31
2022-08-26T09:02:42.192Z,38.31
2022-08-26T09:03:42.156Z,38.37
2022-08-26T09:04:42.170Z,38.28
2022-08-26T09:05:46.694Z,38.41
2022-08-26T09:06:42.199Z,38.68
2022-08-26T09:07:42.212Z,38.68
2022-08-26T09:08:42.221Z,38.69
2022-08-26T09:09:42.243Z,38.49
2022-08-26T09:10:42.253Z,38.56
2022-08-26T09:11:42.266Z,38.54
2022-08-26T09:12:42.284Z,38.72
2022-08-26T09:13:42.369Z,38.71
2022-08-26T09:14:42.309Z,38.60
2022-08-26T09:15:42.323Z,38.54
2022-08-26T09:16:42.423Z,38.41
2022-08-26T09:17:42.363Z,38.34
2022-08-26T09:18:42.367Z,38.28
2022-08-26T09:19:42.383Z,38.22
2022-08-26T09:20:42.401Z,38.06
2022-08-26T09:21:42.412Z,37.82
2022-08-26T09:22:44.328Z,37.62
2022-08-26T09:23:42.438Z,37.74
2022-08-26T09:24:48.255Z,37.91
2022-08-26T09:25:42.505Z,37.81
2022-08-26T09:26:42.483Z,37.85
2022-08-26T09:27:42.493Z,38.23
2022-08-26T09:28:42.508Z,38.26
2022-08-26T09:29:42.520Z,38.60
2022-08-26T09:30:42.576Z,38.88
2022-08-26T09:31:42.554Z,39.28
2022-08-26T09:32:42.566Z,39.96
2022-08-26T09:33:42.586Z,40.25
2022-08-26T09:34:42.597Z,40.34
2022-08-26T09:35:42.606Z,40.29
2022-08-26T09:36:42.629Z,40.08
2022-08-26T09:37:42.691Z,39.73
2022-08-26T09:38:42.692Z,39.67
2022-08-26T09:39:42.674Z,39.50
2022-08-26T09:40:42.690Z,39.13
2022-08-26T09:41:42.698Z,39.25
2022-08-26T09:42:42.715Z,39.36
2022-08-26T09:43:42.726Z,39.67
2022-08-26T09:44:42.750Z,39.86
2022-08-26T09:45:50.088Z,39.79
2022-08-26T09:46:42.782Z,39.63
2022-08-26T09:47:42.801Z,39.88
2022-08-26T09:48:42.812Z,40.12
2022-08-26T09:49:42.827Z,39.94
2022-08-26T09:50:42.846Z,39.64
2022-08-26T09:51:42.862Z,39.32
2022-08-26T09:52:43.064Z,39.04
2022-08-26T09:53:42.886Z,38.79
2022-08-26T09:54:42.905Z,38.68
2022-08-26T09:55:42.973Z,38.53
2022-08-26T09:56:42.934Z,38.37
2022-08-26T09:57:42.954Z,38.34
2022-08-26T09:58:42.968Z,38.40
2022-08-26T09:59:42.984Z,38.50
2022-08-26T10:00:42.999Z,38.56
2022-08-26T10:01:43.371Z,38.66
2022-08-26T10:02:47.479Z,38.75
2022-08-26T10:03:43.108Z,38.90
2022-08-26T10:04:43.126Z,39.04
2022-08-26T10:05:43.073Z,39.32
2022-08-26T10:06:43.095Z,39.36
2022-08-26T10:07:43.108Z,39.45
2022-08-26T10:08:47.425Z,39.50
2022-08-26T10:09:43.149Z,39.44
2022-08-26T10:10:44.074Z,39.28
2022-08-26T10:11:43.167Z,39.29
2022-08-26T10:12:43.182Z,39.32
2022-08-26T10:13:43.200Z,39.54
2022-08-26T10:15:48.612Z,39.88
2022-08-26T10:16:43.273Z,39.75
2022-08-26T10:17:43.259Z,39.64
2022-08-26T10:18:43.277Z,39.72
2022-08-26T10:19:55.681Z,39.79
2022-08-26T10:20:43.312Z,40.04
2022-08-26T10:21:43.328Z,40.18
2022-08-26T10:22:43.347Z,40.27
2022-08-26T10:23:43.421Z,40.19
2022-08-26T10:24:43.370Z,39.98
2022-08-26T10:25:43.388Z,39.86
2022-08-26T10:26:43.420Z,39.82
2022-08-26T10:27:51.133Z,40.19
2022-08-26T10:28:44.385Z,40.60
2022-08-26T10:29:43.458Z,40.91
2022-08-26T10:30:43.475Z,41.29
2022-08-26T10:31:43.521Z,41.74
2022-08-26T10:32:43.508Z,42.13
2022-08-26T10:33:43.534Z,42.58
2022-08-26T10:34:43.545Z,42.65
2022-08-26T10:35:43.568Z,43.14
2022-08-26T10:37:10.812Z,43.27
2022-08-26T10:37:43.628Z,42.87
2022-08-26T10:38:44.268Z,42.31
2022-08-26T10:39:43.636Z,41.70
2022-08-26T10:40:43.725Z,40.96
2022-08-26T10:41:43.683Z,40.45
2022-08-26T10:42:43.706Z,39.77
2022-08-26T10:43:43.716Z,39.32
2022-08-26T10:44:43.926Z,39.03
2022-08-26T10:45:43.871Z,38.79
2022-08-26T10:46:43.761Z,38.59
2022-08-26T10:47:43.785Z,38.35
2022-08-26T10:48:43.800Z,38.25
2022-08-26T10:49:43.833Z,38.13
2022-08-26T10:50:43.842Z,38.19
2022-08-26T10:51:45.725Z,38.15
2022-08-26T10:52:43.873Z,38.06
2022-08-26T10:53:44.548Z,37.84
2022-08-26T10:54:43.906Z,37.69
2022-08-26T10:55:43.924Z,37.47
2022-08-26T10:56:43.940Z,37.31
2022-08-26T10:57:43.957Z,37.20
2022-08-26T10:58:44.642Z,37.03
2022-08-26T10:59:43.986Z,36.85
2022-08-26T11:00:44.184Z,36.65
2022-08-26T11:01:44.115Z,36.39
2022-08-26T11:02:47.175Z,36.19
2022-08-26T11:03:44.123Z,36.05
2022-08-26T11:04:47.698Z,35.81
2022-08-26T11:05:44.083Z,35.62
2022-08-26T11:06:44.098Z,35.45
2022-08-26T11:07:44.113Z,35.28
2022-08-26T11:08:44.131Z,35.22
2022-08-26T11:09:44.149Z,35.16
2022-08-26T11:10:44.161Z,35.10
2022-08-26T11:11:44.175Z,35.16
2022-08-26T11:12:44.191Z,35.06
2022-08-26T11:13:44.204Z,35.04
2022-08-26T11:14:53.305Z,34.85
2022-08-26T11:15:44.233Z,34.78
2022-08-26T11:16:44.325Z,34.43
2022-08-26T11:17:44.262Z,34.15
2022-08-26T11:18:44.273Z,34.08
2022-08-26T11:20:00.242Z,33.90
2022-08-26T11:20:44.302Z,33.84
2022-08-26T11:21:44.483Z,33.76
2022-08-26T11:22:47.661Z,33.45
2022-08-26T11:23:44.344Z,33.56
2022-08-26T11:24:44.355Z,33.59
2022-08-26T11:25:44.372Z,33.73
2022-08-26T11:26:56.339Z,33.71
2022-08-26T11:27:44.396Z,33.72
2022-08-26T11:28:44.428Z,33.76
2022-08-26T11:29:44.421Z,33.78
2022-08-26T11:30:44.435Z,33.78
2022-08-26T11:31:44.496Z,33.86
2022-08-26T11:32:44.456Z,33.82
2022-08-26T11:33:44.472Z,33.90
2022-08-26T11:34:44.483Z,33.94
2022-08-26T11:35:44.492Z,34.02
2022-08-26T11:36:44.503Z,33.93
2022-08-26T11:37:44.517Z,34.05
2022-08-26T11:38:44.526Z,33.93
2022-08-26T11:39:47.276Z,34.03
2022-08-26T11:40:44.611Z,33.97
2022-08-26T11:41:44.565Z,33.91
2022-08-26T11:42:44.578Z,33.94
2022-08-26T11:43:44.588Z,33.88
2022-08-26T11:44:49.279Z,33.88
2022-08-26T11:45:44.678Z,33.86
2022-08-26T11:46:44.621Z,33.90
2022-08-26T11:47:44.635Z,33.88
2022-08-26T11:48:44.646Z,33.82
2022-08-26T11:49:44.657Z,33.72
2022-08-26T11:50:44.666Z,33.75
2022-08-26T11:51:47.763Z,33.65
2022-08-26T11:52:44.689Z,33.59
2022-08-26T11:53:44.710Z,33.69
2022-08-26T11:54:44.711Z,33.53
2022-08-26T11:55:44.724Z,33.38
2022-08-26T11:56:44.734Z,33.35
2022-08-26T11:57:44.747Z,33.34
2022-08-26T11:58:44.755Z,33.37
2022-08-26T11:59:44.761Z,33.32
2022-08-26T12:00:45.771Z,33.29
2022-08-26T12:01:44.784Z,33.31
2022-08-26T12:02:44.795Z,33.32
2022-08-26T12:03:44.973Z,33.28
2022-08-26T12:04:44.849Z,33.31
2022-08-26T12:05:44.827Z,33.22
2022-08-26T12:06:45.702Z,33.26
2022-08-26T12:07:44.846Z,33.06
2022-08-26T12:08:44.857Z,33.07
2022-08-26T12:09:44.861Z,33.09
2022-08-26T12:10:44.878Z,33.15
2022-08-26T12:11:44.886Z,33.04
2022-08-26T12:12:44.892Z,33.01
2022-08-26T12:13:44.911Z,32.93
2022-08-26T12:14:44.915Z,32.87
2022-08-26T12:15:44.927Z,32.52
2022-08-26T12:16:45.001Z,32.28
2022-08-26T12:17:44.948Z,31.96
2022-08-26T12:18:45.047Z,31.81
2022-08-26T12:19:44.965Z,31.69
2022-08-26T12:20:44.979Z,31.63
2022-08-26T12:21:44.985Z,31.48
2022-08-26T12:22:47.952Z,31.47
2022-08-26T12:23:45.007Z,31.35
2022-08-26T12:24:45.015Z,31.31
2022-08-26T12:25:45.019Z,30.94
2022-08-26T12:26:45.030Z,30.94
2022-08-26T12:27:45.041Z,30.98
2022-08-26T12:28:45.051Z,31.01
2022-08-26T12:29:48.479Z,30.83
2022-08-26T12:30:45.072Z,30.82
2022-08-26T12:31:45.106Z,30.55
2022-08-26T12:32:57.326Z,30.62
2022-08-26T12:33:45.109Z,30.37
2022-08-26T12:34:45.120Z,30.35
2022-08-26T12:35:45.130Z,30.26
2022-08-26T12:36:45.139Z,30.13
2022-08-26T12:37:45.145Z,30.11
2022-08-26T12:38:45.156Z,29.98
2022-08-26T12:39:45.162Z,29.65
2022-08-26T12:40:45.173Z,29.55
2022-08-26T12:41:45.184Z,29.51
2022-08-26T12:42:45.187Z,29.41
2022-08-26T12:43:45.207Z,29.30
2022-08-26T12:44:53.915Z,29.23
2022-08-26T12:45:45.265Z,29.14
2022-08-26T12:46:49.165Z,28.92
2022-08-26T12:47:45.224Z,28.73
2022-08-26T12:48:45.239Z,28.39
2022-08-26T12:49:45.244Z,28.22
2022-08-26T12:50:45.256Z,28.12
2022-08-26T12:51:45.256Z,28.03
2022-08-26T12:52:45.265Z,27.94
2022-08-26T12:53:45.278Z,27.78
2022-08-26T12:54:45.284Z,27.74